createdAt,value
2023-02-25T00:02:02.585Z,2.37
2023-02-25T00:07:29.563Z,2.38
2023-02-25T00:12:54.111Z,2.39
2023-02-25T00:18:18.258Z,2.40
2023-02-25T00:23:44.515Z,2.41
2023-02-25T00:29:09.094Z,2.44
2023-02-25T00:34:33.402Z,2.45
2023-02-25T00:39:58.171Z,2.43
2023-02-25T00:45:24.633Z,2.41
2023-02-25T00:50:49.402Z,2.41
2023-02-25T00:56:16.287Z,2.37
2023-02-25T01:01:40.851Z,2.31
2023-02-25T01:07:05.436Z,2.27
2023-02-25T01:12:31.104Z,2.24
2023-02-25T01:17:55.614Z,2.23
2023-02-25T01:23:21.832Z,2.22
2023-02-25T01:28:47.066Z,2.22
2023-02-25T01:34:15.518Z,2.26
2023-02-25T01:39:41.526Z,2.27
2023-02-25T01:45:14.551Z,2.24
2023-02-25T01:50:52.744Z,2.19
2023-02-25T01:56:21.274Z,2.16
2023-02-25T02:01:46.367Z,2.14
2023-02-25T02:07:11.419Z,2.14
2023-02-25T02:12:39.796Z,2.13
2023-02-25T02:18:06.432Z,2.14
2023-02-25T02:24:22.208Z,2.14
2023-02-25T02:29:52.064Z,2.16
2023-02-25T02:35:40.735Z,2.19
2023-02-25T02:41:36.743Z,2.22
2023-02-25T02:47:07.304Z,2.26
2023-02-25T02:52:34.774Z,2.28
2023-02-25T02:58:22.497Z,2.30
2023-02-25T03:03:55.144Z,2.33
2023-02-25T03:09:25.614Z,2.35
2023-02-25T03:14:49.907Z,2.36
2023-02-25T03:20:24.302Z,2.35
2023-02-25T03:25:56.890Z,2.32
2023-02-25T03:31:46.507Z,2.32
2023-02-25T03:37:17.296Z,2.28
2023-02-25T03:42:51.490Z,2.24
2023-02-25T03:48:19.453Z,2.16
2023-02-25T03:53:43.213Z,2.07
2023-02-25T03:59:16.999Z,2.02
2023-02-25T04:04:42.767Z,1.99
2023-02-25T04:10:09.944Z,1.95
2023-02-25T04:15:34.660Z,1.94
2023-02-25T04:20:59.703Z,1.93
2023-02-25T04:26:24.564Z,1.92
2023-02-25T04:31:49.346Z,1.89
2023-02-25T04:37:13.963Z,1.88
2023-02-25T04:42:38.442Z,1.87
2023-02-25T04:48:03.875Z,1.84
2023-02-25T04:53:28.453Z,1.81
2023-02-25T04:58:54.296Z,1.80
2023-02-25T05:04:18.734Z,1.80
2023-02-25T05:09:43.240Z,1.81
2023-02-25T05:15:08.917Z,1.77
2023-02-25T05:20:33.690Z,1.69
2023-02-25T05:26:00.456Z,1.63
2023-02-25T05:31:26.394Z,1.59
2023-02-25T05:36:50.858Z,1.56
2023-02-25T05:42:15.296Z,1.49
2023-02-25T05:47:39.877Z,1.42
2023-02-25T05:53:04.734Z,1.39
2023-02-25T05:58:29.619Z,1.36
2023-02-25T06:03:53.844Z,1.36
2023-02-25T06:09:19.351Z,1.38
2023-02-25T06:14:43.991Z,1.39
2023-02-25T06:20:08.955Z,1.42
2023-02-25T06:25:34.252Z,1.42
2023-02-25T06:30:58.559Z,1.42
2023-02-25T06:36:22.677Z,1.44
2023-02-25T06:41:46.841Z,1.47
2023-02-25T06:47:30.275Z,1.49
2023-02-25T06:52:54.851Z,1.52
2023-02-25T06:58:19.672Z,1.56
2023-02-25T07:03:44.448Z,1.61
2023-02-25T07:09:08.997Z,1.66
2023-02-25T07:14:33.809Z,1.70
2023-02-25T07:19:58.673Z,1.71
2023-02-25T07:25:23.158Z,1.67
2023-02-25T07:30:48.994Z,1.64
2023-02-25T07:36:15.501Z,1.59
2023-02-25T07:41:40.514Z,1.53
2023-02-25T07:47:12.261Z,1.48
2023-02-25T07:52:39.140Z,1.48
2023-02-25T07:58:05.316Z,1.51
2023-02-25T08:03:31.812Z,1.51
2023-02-25T08:08:56.993Z,1.45
2023-02-25T08:14:22.063Z,1.41
2023-02-25T08:19:46.553Z,1.42
2023-02-25T08:25:11.673Z,1.46
2023-02-25T08:30:37.492Z,1.46
2023-02-25T08:36:21.050Z,1.43
2023-02-25T08:42:21.241Z,1.55
2023-02-25T08:48:20.439Z,1.73
2023-02-25T08:54:19.375Z,1.80
2023-02-25T09:00:19.234Z,1.89
2023-02-25T09:06:23.364Z,1.99
2023-02-25T09:11:48.624Z,2.11
2023-02-25T09:17:13.158Z,2.23
2023-02-25T09:22:40.528Z,2.22
2023-02-25T09:28:05.342Z,2.23
2023-02-25T09:33:31.793Z,2.28
2023-02-25T09:38:58.629Z,2.36
2023-02-25T09:44:39.717Z,2.33
2023-02-25T09:50:24.049Z,2.32
2023-02-25T09:55:51.281Z,2.37
2023-02-25T10:01:52.096Z,2.45
2023-02-25T10:07:26.946Z,2.51
2023-02-25T10:13:02.810Z,2.37
2023-02-25T10:18:46.389Z,2.31
2023-02-25T10:24:22.876Z,2.37
2023-02-25T10:29:53.067Z,2.46
2023-02-25T10:35:17.948Z,2.45
2023-02-25T10:40:42.748Z,2.52
2023-02-25T10:46:44.990Z,2.51
2023-02-25T10:52:18.160Z,2.50
2023-02-25T10:57:43.533Z,2.58
2023-02-25T11:03:16.247Z,2.64
2023-02-25T11:08:41.574Z,2.69
2023-02-25T11:14:15.629Z,2.68
2023-02-25T11:19:47.679Z,2.61
2023-02-25T11:25:19.224Z,2.55
2023-02-25T11:30:43.460Z,2.71
2023-02-25T11:36:08.493Z,2.77
2023-02-25T11:41:33.169Z,2.93
2023-02-25T11:47:03.794Z,2.99
2023-02-25T11:52:38.543Z,3.05
2023-02-25T11:58:31.641Z,3.02
2023-02-25T12:04:14.548Z,2.67
2023-02-25T12:10:03.240Z,2.48
2023-02-25T12:15:30.593Z,2.42
2023-02-25T12:21:22.810Z,2.17
2023-02-25T12:27:10.121Z,2.13
2023-02-25T12:32:43.310Z,1.98
2023-02-25T12:39:13.012Z,1.89
2023-02-25T12:44:49.608Z,1.76
2023-02-25T12:50:51.931Z,1.81
2023-02-25T12:56:34.200Z,1.88
2023-02-25T13:02:17.430Z,1.90
2023-02-25T13:07:44.726Z,2.00
2023-02-25T13:13:42.408Z,2.11
2023-02-25T13:19:42.215Z,1.98
2023-02-25T13:25:47.757Z,1.77
2023-02-25T13:31:52.318Z,1.86
2023-02-25T13:37:42.651Z,1.66
2023-02-25T13:43:37.619Z,1.22
2023-02-25T13:49:10.967Z,1.10
2023-02-25T13:54:58.669Z,1.12
2023-02-25T14:00:37.086Z,1.13
2023-02-25T14:06:15.822Z,1.15
2023-02-25T14:12:13.165Z,1.24
2023-02-25T14:17:47.321Z,1.30
2023-02-25T14:23:45.084Z,1.34
2023-02-25T14:29:37.304Z,1.36
2023-02-25T14:35:30.492Z,1.28
2023-02-25T14:41:32.178Z,1.21
2023-02-25T14:47:15.098Z,1.11
2023-02-25T14:53:23.244Z,1.10
2023-02-25T14:59:16.589Z,1.16
2023-02-25T15:05:10.821Z,1.21
2023-02-25T15:17:14.252Z,1.09
2023-02-25T15:23:21.900Z,1.05
2023-02-25T15:28:57.168Z,0.99
2023-02-25T15:34:24.765Z,0.90
2023-02-25T15:40:16.773Z,0.86
2023-02-25T15:45:48.123Z,0.81
2023-02-25T15:51:48.822Z,0.73
2023-02-25T15:57:23.713Z,0.70
2023-02-25T16:03:08.444Z,0.73
2023-02-25T16:08:51.886Z,0.68
2023-02-25T16:38:25.349Z,0.53
2023-02-25T16:43:55.708Z,0.49
2023-02-25T16:49:41.045Z,0.46
2023-02-25T16:55:12.722Z,0.44
2023-02-25T17:00:53.425Z,0.40
2023-02-25T17:06:21.270Z,0.36
2023-02-25T17:11:55.629Z,0.32
2023-02-25T17:17:53.556Z,0.33
2023-02-25T17:23:26.573Z,0.31
2023-02-25T17:29:01.200Z,0.27
2023-02-25T17:34:35.915Z,0.23
2023-02-25T17:40:09.770Z,0.22
2023-02-25T17:45:50.184Z,0.22
2023-02-25T17:51:32.963Z,0.24
2023-02-25T17:57:16.116Z,0.22
2023-02-25T18:02:48.213Z,0.22
2023-02-25T18:09:09.200Z,0.22
2023-02-25T18:14:47.323Z,0.13
2023-02-25T18:20:48.273Z,0.06
2023-02-25T18:26:22.501Z,0.03
2023-02-25T18:31:52.168Z,0.02
2023-02-25T18:37:22.654Z,0.03
2023-02-25T18:42:52.120Z,0.03
2023-02-25T18:48:23.889Z,0.01
2023-02-25T18:53:58.048Z,-0.01
2023-02-25T18:59:28.895Z,-0.02
2023-02-25T19:05:03.320Z,-0.03
2023-02-25T19:10:36.497Z,-0.02
2023-02-25T19:16:07.527Z,-0.02
2023-02-25T19:21:46.872Z,-0.07
2023-02-25T19:27:24.907Z,-0.13
2023-02-25T19:32:56.190Z,-0.11
2023-02-25T19:38:23.221Z,-0.11
2023-02-25T19:43:55.721Z,-0.10
2023-02-25T19:49:30.501Z,-0.12
2023-02-25T19:55:03.770Z,-0.16
2023-02-25T20:00:40.104Z,-0.15
2023-02-25T20:06:13.637Z,-0.16
2023-02-25T20:11:44.940Z,-0.16
2023-02-25T20:17:09.548Z,-0.15
2023-02-25T20:22:33.663Z,-0.12
2023-02-25T20:28:00.545Z,-0.11
2023-02-25T20:33:28.394Z,-0.15
2023-02-25T20:39:02.701Z,-0.26
2023-02-25T20:44:27.335Z,-0.32
2023-02-25T20:49:51.677Z,-0.34
2023-02-25T20:55:15.802Z,-0.32
2023-02-25T21:00:40.107Z,-0.31
2023-02-25T21:06:04.854Z,-0.32
2023-02-25T21:11:29.675Z,-0.32
2023-02-25T21:16:57.224Z,-0.31
2023-02-25T21:22:21.803Z,-0.28
2023-02-25T21:27:46.769Z,-0.30
2023-02-25T21:33:12.538Z,-0.32
2023-02-25T21:38:38.750Z,-0.39
2023-02-25T21:44:04.842Z,-0.45
2023-02-25T21:49:31.717Z,-0.45
2023-02-25T21:54:55.989Z,-0.43
2023-02-25T22:00:20.778Z,-0.41
2023-02-25T22:05:47.205Z,-0.41
2023-02-25T22:11:21.265Z,-0.39
2023-02-25T22:16:46.165Z,-0.37
2023-02-25T22:22:10.171Z,-0.39
2023-02-25T22:27:34.597Z,-0.45
2023-02-25T22:32:59.289Z,-0.51
2023-02-25T22:38:23.808Z,-0.52
2023-02-25T22:43:49.556Z,-0.52
2023-02-25T22:49:14.182Z,-0.56
2023-02-25T22:54:37.967Z,-0.60
2023-02-25T23:00:02.344Z,-0.66
2023-02-25T23:05:26.989Z,-0.71
2023-02-25T23:10:51.411Z,-0.72
2023-02-25T23:16:22.981Z,-0.76
2023-02-25T23:21:48.232Z,-0.74
2023-02-25T23:27:13.095Z,-0.66
2023-02-25T23:32:37.229Z,-0.58
2023-02-25T23:38:01.858Z,-0.53
2023-02-25T23:43:26.467Z,-0.49
2023-02-25T23:48:55.786Z,-0.50
2023-02-25T23:54:22.683Z,-0.51
2023-02-25T23:59:47.058Z,-0.51
